CheckWX is a tool to help pilots better visualize weather data.  It is not intended as a substitute for an official pre-flight weather briefing.

07:15:09 UTC

PASI TAF
Sitka Rocky Gutierrez Airport
Sitka, Alaska, USA
PASI 200520Z 2006/2106 29005KT P6SM SCT020 OVC060 FM201200 32005KT P6SM SCT020 OVC050 TEMPO 2012/2016 35005KT OVC020 FM202000 27010KT P6SM FEW020 BKN035

Jun-20@
06:00 UTC

Jun-20 @ 06:00 UTC

Jun-20@
12:00 UTC

Jun-20 @ 12:00 UTC

PASI 200520Z 2006/2106 29005KT P6SM SCT020 OVC060
Wind
  • 290° at 5 KTS
Cloud Levels
  • Scattered at 2,000' AGL
  • Overcast at 6,000' AGL

Jun-20@
12:00 UTC

Jun-20 @ 12:00 UTC

Jun-20@
16:00 UTC

Jun-20 @ 16:00 UTC

TEMPO 2012/2016 35005KT OVC020

Temporary

Temporary Changes expected for less than half the time period

Wind
  • 350° at 5 KTS
Cloud Levels
  • Overcast at 2,000' AGL

Jun-20@
12:00 UTC

Jun-20 @ 12:00 UTC

Jun-20@
20:00 UTC

Jun-20 @ 20:00 UTC

FM201200 32005KT P6SM SCT020 OVC050

From

From Standard forecast or significant change

Wind
  • 320° at 5 KTS
Cloud Levels
  • Scattered at 2,000' AGL
  • Overcast at 5,000' AGL

Jun-20@
20:00 UTC

Jun-20 @ 20:00 UTC

Jun-21@
06:00 UTC

Jun-21 @ 06:00 UTC

FM202000 27010KT P6SM FEW020 BKN035

From

From Standard forecast or significant change

Wind
  • 270° at 10 KTS
Cloud Levels
  • Few at 2,000' AGL
  • Broken at 3,500' AGL